Time;durP1;ratioP1;P1;durP2;ratioP2;P2;SDS_P1;SDS_P2;PMS_P1;PMS_P2;Temp;Humidity;BMP_temperature;BMP_pressure;BME280_temperature;BME280_humidity;BME280_pressure;Samples;Min_cycle;Max_cycle;Signal;HPM_P1;HPM_P2
2023/07/19 00:00:35;;;;;;;0.10;0.10;;;16.60;99.90;;;;;;5094079;28;20126;-63
2023/07/19 00:03:01;;;;;;;0.80;0.75;;;16.40;99.90;;;;;;5093990;28;20044;-63
2023/07/19 00:05:27;;;;;;;0.10;0.10;;;16.40;99.90;;;;;;5093577;28;20091;-62
2023/07/19 00:07:52;;;;;;;;;;;16.30;99.90;;;;;;5093800;28;20048;-62
2023/07/19 00:10:18;;;;;;;0.20;0.20;;;15.90;99.90;;;;;;5093441;28;19946;-64
2023/07/19 00:12:44;;;;;;;0.20;0.20;;;16.20;99.90;;;;;;5093546;28;20044;-63
2023/07/19 00:15:09;;;;;;;;;;;16.30;99.90;;;;;;5093966;28;20055;-64
2023/07/19 00:17:35;;;;;;;0.10;0.10;;;16.50;99.90;;;;;;5093704;28;19920;-63
2023/07/19 00:20:01;;;;;;;0.75;0.75;;;16.10;99.90;;;;;;5093622;28;20120;-63
2023/07/19 00:22:26;;;;;;;0.17;0.17;;;16.30;99.90;;;;;;5093523;28;20483;-63
2023/07/19 00:24:52;;;;;;;0.20;0.20;;;16.50;99.90;;;;;;5093308;28;20211;-63
2023/07/19 00:27:18;;;;;;;;;;;16.10;99.90;;;;;;5093587;28;20043;-64
2023/07/19 00:29:43;;;;;;;0.38;0.30;;;16.10;99.90;;;;;;5083598;28;19935;-63
2023/07/19 00:32:09;;;;;;;;;;;16.10;99.90;;;;;;5073464;28;20122;-63
2023/07/19 00:34:35;;;;;;;0.30;0.30;;;15.90;99.90;;;;;;5073454;28;19937;-63
2023/07/19 00:37:01;;;;;;;0.10;0.10;;;15.90;99.90;;;;;;5072878;28;20101;-64
2023/07/19 00:39:27;;;;;;;0.20;0.20;;;16.20;99.90;;;;;;5072772;28;20117;-63
2023/07/19 00:41:53;;;;;;;0.20;0.20;;;16.00;99.90;;;;;;5072678;28;20082;-63
2023/07/19 00:44:19;;;;;;;1.08;0.55;;;16.00;99.90;;;;;;5072575;28;20480;-64
2023/07/19 00:46:45;;;;;;;;;;;16.00;99.90;;;;;;5082416;28;20492;-63
2023/07/19 00:49:11;;;;;;;0.17;0.17;;;16.30;99.90;;;;;;5093033;28;19926;-63
2023/07/19 00:51:37;;;;;;;0.20;0.20;;;16.10;99.90;;;;;;5092075;28;20495;-64
2023/07/19 00:54:05;;;;;;;0.25;0.25;;;16.10;99.90;;;;;;5092828;28;20506;-63
2023/07/19 00:56:32;;;;;;;0.10;0.10;;;16.00;99.90;;;;;;5092820;28;20048;-63
2023/07/19 00:58:59;;;;;;;0.30;0.30;;;16.20;99.90;;;;;;5092942;28;20048;-63
2023/07/19 01:01:26;;;;;;;0.30;0.30;;;15.90;99.90;;;;;;5092824;28;20044;-63
2023/07/19 01:03:52;;;;;;;0.20;0.20;;;15.90;99.90;;;;;;5092760;28;20048;-63
2023/07/19 01:06:19;;;;;;;0.20;0.20;;;16.10;99.90;;;;;;5092527;28;20060;-63
2023/07/19 01:08:48;;;;;;;0.20;0.20;;;15.70;99.90;;;;;;5092964;28;20068;-63
2023/07/19 01:11:14;;;;;;;0.32;0.32;;;16.00;99.90;;;;;;5092533;28;20502;-62
2023/07/19 01:13:51;;;;;;;2.47;0.22;;;16.10;99.90;;;;;;5092956;28;20047;-62
2023/07/19 01:16:17;;;;;;;0.17;0.17;;;15.80;99.90;;;;;;5092649;28;20422;-62
2023/07/19 01:18:42;;;;;;;;;;;15.80;99.90;;;;;;5092938;28;20155;-61
2023/07/19 01:21:09;;;;;;;0.10;0.10;;;15.40;99.90;;;;;;5091422;28;19946;-63
2023/07/19 01:23:35;;;;;;;0.20;0.20;;;16.00;99.90;;;;;;5080029;28;20480;-61
2023/07/19 01:26:01;;;;;;;;;;;16.00;99.90;;;;;;5072914;28;20055;-60
2023/07/19 01:28:26;;;;;;;0.10;0.10;;;15.90;99.90;;;;;;5071812;28;20436;-60
2023/07/19 01:30:52;;;;;;;0.10;0.10;;;15.80;99.90;;;;;;5072351;28;20131;-60
2023/07/19 01:33:18;;;;;;;0.30;0.30;;;15.70;99.90;;;;;;5072184;28;20036;-60
2023/07/19 01:35:44;;;;;;;;;;;15.50;99.90;;;;;;5072472;28;20574;-59
2023/07/19 01:38:10;;;;;;;0.40;0.40;;;15.80;99.90;;;;;;5071806;28;20089;-60
2023/07/19 01:40:36;;;;;;;;;;;15.50;99.90;;;;;;5071915;28;20139;-60
2023/07/19 01:43:01;;;;;;;2.22;0.47;;;15.40;99.90;;;;;;5072390;28;20327;-60
2023/07/19 01:45:27;;;;;;;;;;;15.60;99.90;;;;;;5072119;28;20049;-60
2023/07/19 01:47:53;;;;;;;0.10;0.10;;;15.60;99.90;;;;;;5071595;28;20277;-60
2023/07/19 01:50:18;;;;;;;;;;;15.50;99.90;;;;;;5071991;28;20060;-61
2023/07/19 01:52:44;;;;;;;0.43;0.13;;;15.80;99.90;;;;;;5071543;28;19993;-62
2023/07/19 01:55:10;;;;;;;;;;;15.70;99.90;;;;;;5071664;28;20140;-63
2023/07/19 01:57:36;;;;;;;0.75;0.52;;;15.70;99.90;;;;;;5071549;28;19924;-61
2023/07/19 02:00:03;;;;;;;;;;;15.50;99.90;;;;;;5071975;28;20044;-61
2023/07/19 02:02:28;;;;;;;0.25;0.25;;;15.50;99.90;;;;;;5071477;28;19920;-61
2023/07/19 02:04:54;;;;;;;0.20;0.20;;;15.50;99.90;;;;;;5071089;28;20060;-62
2023/07/19 02:07:20;;;;;;;;;;;15.60;99.90;;;;;;5071797;28;20044;-61
2023/07/19 02:09:46;;;;;;;0.10;0.10;;;15.80;99.90;;;;;;5071109;28;20652;-61
2023/07/19 02:12:12;;;;;;;0.17;0.17;;;15.80;99.90;;;;;;5071438;28;20048;-61
2023/07/19 02:14:38;;;;;;;;;;;15.70;99.90;;;;;;5070838;28;20527;-60
2023/07/19 02:17:04;;;;;;;0.17;0.17;;;15.60;99.90;;;;;;5071351;28;20437;-60
2023/07/19 02:19:29;;;;;;;0.57;0.45;;;15.90;99.90;;;;;;5070987;28;20106;-61
2023/07/19 02:21:55;;;;;;;;;;;15.90;99.90;;;;;;5071640;28;20044;-60
2023/07/19 02:24:21;;;;;;;0.10;0.10;;;15.40;99.90;;;;;;5070932;28;19927;-61
2023/07/19 02:26:46;;;;;;;;;;;15.50;99.90;;;;;;5071855;28;20072;-60
2023/07/19 02:29:12;;;;;;;0.55;0.52;;;15.30;99.90;;;;;;5071233;28;19925;-63
2023/07/19 02:31:37;;;;;;;;;;;15.60;99.90;;;;;;5072560;28;20055;-62
2023/07/19 02:34:06;;;;;;;0.10;0.10;;;15.70;99.90;;;;;;5075292;28;20016;-61
2023/07/19 02:36:34;;;;;;;0.40;0.40;;;15.70;99.90;;;;;;5073884;28;20557;-60
2023/07/19 02:39:01;;;;;;;0.10;0.10;;;15.50;99.90;;;;;;5074986;28;20056;-62
2023/07/19 02:41:26;;;;;;;0.28;0.28;;;15.20;99.90;;;;;;5075396;28;20124;-61
2023/07/19 02:43:52;;;;;;;;;;;15.20;99.90;;;;;;5075549;28;20147;-61
2023/07/19 02:46:18;;;;;;;0.43;0.43;;;15.60;99.90;;;;;;5075133;28;19924;-60
2023/07/19 02:48:43;;;;;;;;;;;15.60;99.90;;;;;;5075340;28;20048;-61
2023/07/19 02:51:09;;;;;;;0.30;0.30;;;15.40;99.90;;;;;;5074817;28;19925;-62
2023/07/19 02:53:35;;;;;;;;;;;15.60;99.90;;;;;;5073992;28;20044;-61
2023/07/19 02:56:00;;;;;;;0.35;0.35;;;15.30;99.90;;;;;;5074725;28;19932;-62
2023/07/19 02:58:27;;;;;;;;;;;15.40;99.90;;;;;;5084040;28;20040;-61
2023/07/19 03:00:53;;;;;;;0.30;0.30;;;15.10;99.90;;;;;;5094964;28;20394;-61
2023/07/19 03:03:19;;;;;;;0.32;0.30;;;15.50;99.90;;;;;;5094941;28;20685;-61
2023/07/19 03:05:45;;;;;;;;;;;15.40;99.90;;;;;;5095351;28;20052;-63
2023/07/19 03:08:11;;;;;;;0.45;0.30;;;15.30;99.90;;;;;;5094706;28;19977;-61
2023/07/19 03:10:38;;;;;;;0.20;0.20;;;15.20;99.90;;;;;;5095058;28;20097;-60
2023/07/19 03:13:04;;;;;;;0.10;0.10;;;15.00;99.90;;;;;;5095137;28;20055;-60
2023/07/19 03:15:33;;;;;;;0.20;0.20;;;15.40;99.90;;;;;;5094888;28;20048;-61
2023/07/19 03:18:03;;;;;;;0.28;0.28;;;15.10;99.90;;;;;;5094788;28;20043;-61
2023/07/19 03:20:29;;;;;;;0.10;0.10;;;15.70;99.90;;;;;;5094470;28;20097;-61
2023/07/19 03:22:56;;;;;;;0.30;0.30;;;15.30;99.90;;;;;;5094820;28;20131;-63
2023/07/19 03:25:25;;;;;;;0.20;0.20;;;15.40;99.90;;;;;;5094629;28;20048;-62
2023/07/19 03:27:51;;;;;;;0.30;0.30;;;15.40;99.90;;;;;;5094850;28;20050;-62
2023/07/19 03:30:17;;;;;;;;;;;15.50;99.90;;;;;;5093789;28;20130;-61
2023/07/19 03:32:42;;;;;;;0.20;0.20;;;14.80;99.90;;;;;;5094362;28;20011;-62
2023/07/19 03:35:08;;;;;;;;;;;15.30;99.90;;;;;;5093383;28;20105;-61
2023/07/19 03:37:36;;;;;;;0.22;0.22;;;14.90;99.90;;;;;;5094530;28;20280;-62
2023/07/19 03:40:02;;;;;;;0.57;0.57;;;15.40;99.90;;;;;;5094445;28;20052;-61
2023/07/19 03:42:28;;;;;;;0.30;0.30;;;15.20;99.90;;;;;;5093931;28;20488;-61
2023/07/19 03:44:54;;;;;;;;;;;15.50;99.90;;;;;;5090333;28;20047;-61
2023/07/19 03:47:19;;;;;;;0.43;0.43;;;15.40;99.90;;;;;;5084946;28;19964;-61
2023/07/19 03:49:45;;;;;;;;;;;15.40;99.90;;;;;;5074172;28;20088;-61
2023/07/19 03:52:11;;;;;;;0.10;0.10;;;15.30;99.90;;;;;;5085864;28;20312;-62
2023/07/19 03:54:36;;;;;;;;;;;15.20;99.90;;;;;;5094683;28;20091;-62
2023/07/19 03:57:02;;;;;;;0.40;0.40;;;15.40;99.90;;;;;;5093763;28;19924;-63
2023/07/19 03:59:29;;;;;;;;;;;15.20;99.90;;;;;;5093770;28;20461;-62
2023/07/19 04:01:54;;;;;;;0.25;0.25;;;15.50;99.90;;;;;;5126802;27;19919;-62
2023/07/19 04:04:20;;;;;;;;;;;15.20;99.90;;;;;;5081578;28;20052;-61
2023/07/19 04:06:46;;;;;;;0.20;0.20;;;15.20;99.90;;;;;;5073602;28;19975;-63
2023/07/19 04:09:12;;;;;;;;;;;15.30;99.90;;;;;;5074020;28;20044;-62
2023/07/19 04:11:37;;;;;;;0.10;0.10;;;15.00;99.90;;;;;;5073453;28;19924;-61
2023/07/19 04:14:03;;;;;;;;;;;15.10;99.90;;;;;;5073939;28;20056;-63
2023/07/19 04:16:29;;;;;;;0.30;0.30;;;15.30;99.90;;;;;;5055724;28;20025;-63
2023/07/19 04:18:54;;;;;;;;;;;15.10;99.90;;;;;;5073606;28;20048;-63
2023/07/19 04:21:20;;;;;;;0.10;0.10;;;15.10;99.90;;;;;;5073379;28;20368;-61
2023/07/19 04:23:46;;;;;;;0.20;0.20;;;15.50;99.90;;;;;;5073306;28;20045;-62
2023/07/19 04:26:12;;;;;;;;;;;15.40;99.90;;;;;;5073600;28;20044;-61
2023/07/19 04:28:37;;;;;;;0.30;0.30;;;15.40;99.90;;;;;;5073052;28;20372;-61
2023/07/19 04:31:03;;;;;;;;;;;15.60;99.90;;;;;;5083294;28;20109;-64
2023/07/19 04:33:30;;;;;;;0.35;0.35;;;15.60;99.90;;;;;;5073300;28;19925;-61
2023/07/19 04:35:55;;;;;;;0.45;0.35;;;15.50;99.90;;;;;;5072855;28;20064;-62
2023/07/19 04:38:21;;;;;;;;;;;15.40;99.90;;;;;;5073446;28;20492;-63
2023/07/19 04:40:47;;;;;;;0.63;0.52;;;15.00;99.90;;;;;;5072798;28;20023;-62
2023/07/19 04:43:12;;;;;;;;;;;15.50;99.90;;;;;;5073251;28;20045;-62
2023/07/19 04:45:38;;;;;;;2.22;0.52;;;15.50;99.90;;;;;;5072614;28;20015;-61
2023/07/19 04:48:04;;;;;;;;;;;15.80;99.90;;;;;;5073260;28;20420;-62
2023/07/19 04:50:30;;;;;;;0.50;0.40;;;15.90;99.90;;;;;;5072767;28;19927;-61
2023/07/19 04:52:55;;;;;;;;;;;15.70;99.90;;;;;;5073208;28;20048;-62
2023/07/19 04:55:21;;;;;;;0.20;0.20;;;15.60;99.90;;;;;;5072517;28;20384;-63
2023/07/19 04:57:47;;;;;;;0.70;0.70;;;15.70;99.90;;;;;;5072640;28;20400;-62
2023/07/19 05:00:14;;;;;;;;;;;15.90;99.90;;;;;;5073066;28;20048;-62
2023/07/19 05:02:41;;;;;;;0.15;0.15;;;15.80;99.90;;;;;;5072627;28;19928;-61
2023/07/19 05:05:08;;;;;;;0.20;0.20;;;15.60;99.90;;;;;;5072902;28;20056;-63
2023/07/19 05:07:34;;;;;;;0.22;0.22;;;15.60;99.90;;;;;;5072356;28;20052;-62
2023/07/19 05:10:02;;;;;;;1.85;1.73;;;15.70;99.90;;;;;;5072271;28;20048;-61
2023/07/19 05:12:29;;;;;;;0.30;0.30;;;15.70;99.90;;;;;;5072157;28;20131;-61
2023/07/19 05:14:55;;;;;;;2.80;0.57;;;15.80;99.90;;;;;;5072213;28;20041;-61
2023/07/19 05:17:21;;;;;;;0.43;0.43;;;15.70;99.90;;;;;;5071924;28;20045;-61
2023/07/19 05:19:47;;;;;;;;;;;15.90;99.90;;;;;;5072791;28;20044;-61
2023/07/19 05:22:12;;;;;;;0.38;0.38;;;16.00;99.90;;;;;;5072920;28;19928;-62
2023/07/19 05:24:38;;;;;;;;;;;15.80;99.90;;;;;;5072676;28;20109;-62
2023/07/19 05:27:04;;;;;;;0.20;0.20;;;15.80;99.90;;;;;;5072057;28;20279;-62
2023/07/19 05:29:30;;;;;;;0.13;0.13;;;16.00;99.90;;;;;;5071981;28;20109;-62
2023/07/19 05:31:56;;;;;;;;;;;16.30;99.90;;;;;;5072204;28;20044;-61
2023/07/19 05:34:22;;;;;;;0.30;0.30;;;16.30;99.90;;;;;;5071668;28;20388;-61
2023/07/19 05:36:48;;;;;;;0.30;0.30;;;16.50;99.90;;;;;;5071857;28;20472;-62
2023/07/19 05:39:14;;;;;;;;;;;16.30;99.90;;;;;;5072731;28;20087;-62
2023/07/19 05:41:39;;;;;;;0.30;0.30;;;16.00;99.90;;;;;;5071569;28;20011;-61
2023/07/19 05:44:05;;;;;;;;;;;16.00;99.90;;;;;;5070940;28;20098;-60
2023/07/19 05:46:34;;;;;;;1.77;0.82;;;16.10;99.90;;;;;;5088340;28;19970;-60
2023/07/19 05:49:00;;;;;;;0.20;0.20;;;16.20;99.90;;;;;;5092068;28;20087;-60
2023/07/19 05:51:26;;;;;;;;;;;15.70;99.90;;;;;;5092177;28;20102;-61
2023/07/19 05:53:51;;;;;;;0.45;0.45;;;15.90;99.90;;;;;;5091733;28;19991;-60
2023/07/19 05:56:17;;;;;;;;;;;16.00;99.90;;;;;;5090133;28;20132;-62
2023/07/19 05:58:43;;;;;;;0.17;0.17;;;16.30;99.90;;;;;;5075884;28;20034;-61
2023/07/19 06:01:09;;;;;;;;;;;16.20;99.90;;;;;;5089944;28;20366;-60
2023/07/19 06:03:36;;;;;;;0.13;0.13;;;16.00;99.90;;;;;;5091028;28;19931;-60
2023/07/19 06:06:05;;;;;;;0.40;0.40;;;15.90;99.90;;;;;;5088445;28;20135;-61
2023/07/19 06:08:32;;;;;;;0.50;0.50;;;15.80;99.90;;;;;;5090760;28;20056;-60
2023/07/19 06:10:58;;;;;;;0.38;0.25;;;15.90;99.90;;;;;;5087660;28;20075;-60
2023/07/19 06:13:24;;;;;;;2.63;0.40;;;16.00;99.90;;;;;;5090282;28;20479;-60
2023/07/19 06:15:50;;;;;;;;;;;16.10;99.90;;;;;;5091170;28;20051;-60
2023/07/19 06:18:16;;;;;;;0.35;0.35;;;16.10;99.90;;;;;;5090843;28;19927;-60
2023/07/19 06:20:42;;;;;;;0.20;0.20;;;16.00;99.90;;;;;;5090665;28;20867;-60
2023/07/19 06:23:08;;;;;;;;;;;16.40;99.90;;;;;;5091015;28;20134;-61
2023/07/19 06:25:33;;;;;;;0.20;0.20;;;16.50;99.90;;;;;;5090618;28;19977;-60
2023/07/19 06:27:59;;;;;;;;;;;16.10;99.90;;;;;;5085794;28;20087;-61
2023/07/19 06:30:25;;;;;;;0.40;0.40;;;16.30;99.90;;;;;;5089255;28;19920;-60
2023/07/19 06:32:50;;;;;;;;;;;16.50;99.90;;;;;;5091050;28;20055;-61
2023/07/19 06:35:16;;;;;;;0.35;0.30;;;16.50;99.90;;;;;;5089487;28;19924;-61
2023/07/19 06:37:43;;;;;;;;;;;16.60;99.90;;;;;;5090331;28;20101;-61
2023/07/19 06:40:09;;;;;;;0.22;0.22;;;16.80;99.90;;;;;;5090584;28;19927;-61
2023/07/19 06:42:36;;;;;;;0.75;0.75;;;16.60;99.90;;;;;;5085138;28;20571;-61
2023/07/19 06:45:02;;;;;;;0.30;0.30;;;16.90;99.90;;;;;;5085219;28;20052;-61
2023/07/19 06:47:28;;;;;;;;;;;16.80;99.90;;;;;;5089448;28;20850;-66
2023/07/19 06:49:55;;;;;;;0.10;0.10;;;16.80;99.90;;;;;;5089563;28;19963;-61
2023/07/19 06:52:21;;;;;;;0.20;0.20;;;16.70;99.90;;;;;;5084088;28;20475;-60
2023/07/19 06:54:46;;;;;;;;;;;16.90;99.90;;;;;;5079268;28;20039;-61
2023/07/19 06:57:12;;;;;;;0.10;0.10;;;16.80;99.90;;;;;;5077140;28;19935;-60
2023/07/19 06:59:37;;;;;;;;;;;17.00;99.90;;;;;;5087140;28;20052;-62
2023/07/19 07:02:03;;;;;;;0.13;0.13;;;17.20;99.90;;;;;;5090449;28;19985;-63
2023/07/19 07:04:29;;;;;;;;;;;17.40;99.90;;;;;;5078316;28;20048;-62
2023/07/19 07:06:54;;;;;;;0.25;0.25;;;17.00;99.90;;;;;;5090436;28;20068;-61
2023/07/19 07:09:20;;;;;;;;;;;17.30;99.90;;;;;;5090232;28;20044;-62
2023/07/19 07:11:45;;;;;;;0.63;0.38;;;17.10;99.90;;;;;;5088632;28;19965;-61
2023/07/19 07:14:11;;;;;;;;;;;17.90;99.90;;;;;;5088613;28;20036;-61
2023/07/19 07:16:37;;;;;;;0.20;0.20;;;17.80;99.90;;;;;;5090291;28;19963;-62
2023/07/19 07:19:02;;;;;;;;;;;17.80;99.90;;;;;;5092478;28;20415;-62
2023/07/19 07:21:28;;;;;;;0.20;0.20;;;18.00;99.90;;;;;;5091685;28;20020;-63
2023/07/19 07:23:54;;;;;;;;;;;17.80;99.90;;;;;;5093622;28;20047;-62
2023/07/19 07:26:20;;;;;;;0.22;0.22;;;18.00;99.90;;;;;;5094422;28;20460;-61
2023/07/19 07:28:45;;;;;;;0.55;0.52;;;18.20;99.90;;;;;;5095503;28;20513;-63
2023/07/19 07:31:11;;;;;;;0.10;0.10;;;18.20;99.90;;;;;;5088489;28;20087;-61
2023/07/19 07:33:38;;;;;;;0.43;0.43;;;18.10;99.90;;;;;;5074036;28;20053;-61
2023/07/19 07:36:04;;;;;;;0.20;0.15;;;17.80;99.90;;;;;;5074025;28;20057;-61
2023/07/19 07:38:30;;;;;;;1.38;0.35;;;17.60;99.90;;;;;;5073829;28;20045;-62
2023/07/19 07:41:05;;;;;;;0.52;0.50;;;17.70;99.90;;;;;;5075496;28;20205;-61
2023/07/19 07:43:31;;;;;;;1.17;0.90;;;18.10;99.90;;;;;;5093575;28;20420;-62
2023/07/19 07:45:57;;;;;;;0.10;0.10;;;18.40;99.90;;;;;;5094202;28;20044;-63
2023/07/19 07:48:23;;;;;;;0.45;0.43;;;18.00;99.90;;;;;;5086342;28;20048;-62
2023/07/19 07:50:51;;;;;;;0.20;0.20;;;18.40;99.90;;;;;;5073795;28;20044;-63
2023/07/19 07:53:18;;;;;;;0.28;0.28;;;18.40;99.90;;;;;;5073773;28;20095;-63
2023/07/19 07:55:44;;;;;;;0.10;0.10;;;18.30;99.90;;;;;;5074158;28;20411;-66
2023/07/19 07:58:11;;;;;;;0.10;0.10;;;17.90;99.90;;;;;;5090364;28;20109;-62
2023/07/19 08:00:36;;;;;;;0.25;0.22;;;18.50;99.90;;;;;;5094064;28;20114;-63
2023/07/19 08:03:02;;;;;;;0.30;0.30;;;18.40;99.90;;;;;;5093954;28;20504;-64
2023/07/19 08:05:29;;;;;;;0.20;0.20;;;18.30;99.90;;;;;;5092388;28;20067;-63
2023/07/19 08:07:54;;;;;;;0.10;0.10;;;17.90;99.90;;;;;;5093714;28;20044;-63
2023/07/19 08:10:20;;;;;;;0.20;0.20;;;18.20;99.90;;;;;;5093714;28;20040;-61
2023/07/19 08:12:47;;;;;;;1.13;0.93;;;18.40;99.90;;;;;;5093419;28;20403;-62
2023/07/19 08:15:12;;;;;;;0.10;0.10;;;18.90;99.90;;;;;;5088716;28;20067;-63
2023/07/19 08:17:39;;;;;;;0.10;0.10;;;18.70;99.90;;;;;;5086199;28;20040;-64
2023/07/19 08:20:06;;;;;;;0.10;0.10;;;18.30;99.90;;;;;;5092894;28;20516;-62
2023/07/19 08:22:33;;;;;;;0.10;0.10;;;18.60;99.90;;;;;;5092547;28;20093;-62
2023/07/19 08:24:59;;;;;;;0.10;0.10;;;18.00;99.90;;;;;;5093284;28;20051;-66
2023/07/19 08:27:25;;;;;;;0.50;0.32;;;18.40;99.90;;;;;;5093800;28;20040;-62
2023/07/19 08:29:52;;;;;;;0.20;0.20;;;18.30;99.90;;;;;;5092833;28;20044;-63
2023/07/19 08:32:18;;;;;;;0.15;0.15;;;18.30;99.90;;;;;;5091949;28;20051;-63
2023/07/19 08:34:44;;;;;;;0.10;0.10;;;18.40;99.90;;;;;;5093257;28;20036;-62
2023/07/19 08:37:10;;;;;;;0.20;0.20;;;18.50;99.90;;;;;;5080434;28;20527;-65
2023/07/19 08:39:36;;;;;;;0.13;0.13;;;18.40;99.90;;;;;;5072647;28;20041;-64
2023/07/19 08:42:03;;;;;;;0.10;0.10;;;18.70;99.90;;;;;;5073015;28;20078;-63
2023/07/19 08:44:29;;;;;;;0.10;0.10;;;18.70;99.90;;;;;;5072795;28;20129;-64
2023/07/19 08:46:55;;;;;;;0.17;0.17;;;18.70;99.90;;;;;;5072901;28;20059;-63
2023/07/19 08:49:22;;;;;;;0.10;0.10;;;18.40;99.90;;;;;;5072803;28;20141;-64
2023/07/19 08:51:47;;;;;;;0.10;0.10;;;18.10;99.90;;;;;;5072661;28;20202;-63
2023/07/19 08:54:13;;;;;;;0.98;0.52;;;18.30;99.90;;;;;;5072491;28;20143;-63
2023/07/19 08:56:41;;;;;;;0.30;0.30;;;18.30;99.90;;;;;;5072950;28;20059;-64
2023/07/19 08:59:07;;;;;;;0.08;0.08;;;18.00;99.90;;;;;;5072938;28;20040;-63
2023/07/19 09:01:34;;;;;;;0.20;0.20;;;18.50;99.90;;;;;;5072517;28;20064;-64
2023/07/19 09:04:00;;;;;;;0.10;0.10;;;18.10;99.90;;;;;;5072499;28;20044;-65
2023/07/19 09:06:30;;;;;;;0.20;0.20;;;18.60;99.90;;;;;;5072047;28;20048;-63
2023/07/19 09:08:56;;;;;;;0.10;0.10;;;18.10;99.90;;;;;;5072181;28;20055;-64
2023/07/19 09:11:22;;;;;;;0.10;0.10;;;18.50;99.90;;;;;;5072740;28;20102;-63
2023/07/19 09:13:58;;;;;;;0.20;0.20;;;18.90;99.90;;;;;;5072573;28;20110;-63
2023/07/19 09:16:31;;;;;;;;;;;18.70;99.90;;;;;;5072634;28;20048;-63
2023/07/19 09:18:58;;;;;;;0.20;0.20;;;18.90;99.90;;;;;;5072145;28;20384;-64
2023/07/19 09:21:31;;;;;;;0.17;0.17;;;19.00;99.90;;;;;;5071874;28;20563;-63
2023/07/19 09:23:58;;;;;;;0.10;0.10;;;19.00;99.90;;;;;;5072048;28;20045;-63
2023/07/19 09:26:24;;;;;;;0.63;0.45;;;18.90;99.90;;;;;;5071821;28;20056;-64
2023/07/19 09:28:51;;;;;;;0.13;0.13;;;18.80;99.90;;;;;;5071178;28;20052;-64
2023/07/19 09:31:17;;;;;;;0.63;0.15;;;19.40;99.90;;;;;;5071541;28;20048;-64
2023/07/19 09:33:43;;;;;;;1.13;1.13;;;19.20;99.90;;;;;;5071884;28;20048;-65
2023/07/19 09:36:08;;;;;;;0.10;0.10;;;18.80;99.90;;;;;;5071618;28;20103;-67
2023/07/19 09:38:34;;;;;;;0.10;0.10;;;19.00;99.90;;;;;;5071777;28;20123;-63
2023/07/19 09:41:00;;;;;;;0.10;0.10;;;19.10;99.90;;;;;;5071009;28;20109;-64
2023/07/19 09:43:25;;;;;;;0.00;0.00;;;19.00;99.90;;;;;;5071431;28;20055;-63
2023/07/19 09:45:51;;;;;;;0.05;0.05;;;18.90;99.90;;;;;;5071609;28;20105;-63
2023/07/19 09:48:18;;;;;;;0.30;0.30;;;18.90;99.90;;;;;;5071568;28;20071;-65
2023/07/19 09:50:49;;;;;;;0.17;0.17;;;18.80;99.90;;;;;;5071541;28;20052;-63
2023/07/19 09:53:15;;;;;;;0.10;0.10;;;19.10;99.90;;;;;;5071548;28;20575;-64
2023/07/19 09:55:43;;;;;;;0.10;0.10;;;19.60;99.90;;;;;;5071654;28;20037;-65
2023/07/19 09:58:11;;;;;;;0.10;0.10;;;19.00;99.90;;;;;;5071568;28;20059;-65
2023/07/19 10:00:38;;;;;;;0.15;0.15;;;19.30;99.90;;;;;;5071511;28;20054;-63
2023/07/19 10:03:08;;;;;;;0.10;0.10;;;19.30;99.90;;;;;;5071244;28;20044;-64
2023/07/19 10:05:35;;;;;;;0.20;0.20;;;19.10;99.90;;;;;;5071235;28;20105;-63
2023/07/19 10:08:03;;;;;;;0.00;0.00;;;19.20;99.90;;;;;;5071353;28;20105;-64
2023/07/19 10:10:40;;;;;;;0.10;0.10;;;19.30;99.90;;;;;;5071405;28;20079;-63
2023/07/19 10:13:06;;;;;;;0.17;0.17;;;19.50;99.90;;;;;;5071467;28;20407;-63
2023/07/19 10:15:34;;;;;;;0.10;0.10;;;19.80;99.90;;;;;;5071307;28;20045;-63
2023/07/19 10:18:00;;;;;;;0.10;0.10;;;19.40;99.90;;;;;;5084344;28;20055;-64
2023/07/19 10:20:34;;;;;;;0.40;0.40;;;19.30;99.90;;;;;;5090633;28;20052;-66
2023/07/19 10:23:13;;;;;;;0.13;0.13;;;19.40;99.90;;;;;;5091680;28;20048;-64
2023/07/19 10:25:49;;;;;;;0.20;0.20;;;19.70;99.90;;;;;;5090147;28;20096;-64
2023/07/19 10:28:29;;;;;;;0.20;0.20;;;19.60;99.90;;;;;;5091306;28;20059;-63
2023/07/19 10:30:56;;;;;;;0.10;0.10;;;19.80;99.90;;;;;;5091295;28;20484;-64
2023/07/19 10:33:30;;;;;;;0.00;0.00;;;19.90;99.90;;;;;;5091281;28;20044;-63
2023/07/19 10:36:03;;;;;;;0.30;0.30;;;19.90;99.90;;;;;;5091345;28;20051;-64
2023/07/19 10:38:30;;;;;;;0.00;0.00;;;20.50;99.90;;;;;;5091277;28;20399;-63
2023/07/19 10:41:09;;;;;;;1.52;0.38;;;20.40;99.90;;;;;;5091432;28;20092;-65
2023/07/19 10:43:36;;;;;;;0.10;0.10;;;20.00;99.90;;;;;;5091361;28;20044;-63
2023/07/19 10:46:05;;;;;;;0.10;0.10;;;20.30;99.90;;;;;;5091283;28;20116;-65
2023/07/19 10:48:36;;;;;;;0.28;0.28;;;20.20;99.90;;;;;;5089832;28;20047;-65
2023/07/19 10:51:09;;;;;;;0.10;0.10;;;20.30;99.90;;;;;;5091112;28;20050;-66
2023/07/19 10:53:56;;;;;;;0.10;0.10;;;20.30;99.90;;;;;;5093758;28;20086;-63
2023/07/19 10:56:21;;;;;;;;;;;20.10;99.90;;;;;;5095738;28;20044;-64
2023/07/19 10:58:48;;;;;;;0.20;0.20;;;20.50;99.90;;;;;;5093928;28;20440;-63
2023/07/19 11:01:15;;;;;;;0.13;0.13;;;20.00;99.90;;;;;;5095110;28;20135;-64
2023/07/19 11:03:45;;;;;;;0.40;0.40;;;19.70;99.90;;;;;;5095066;28;20043;-64
2023/07/19 11:06:11;;;;;;;0.20;0.20;;;20.20;99.90;;;;;;5094966;28;20572;-64
2023/07/19 11:08:36;;;;;;;0.10;0.10;;;20.80;99.90;;;;;;5093859;28;20048;-65
2023/07/19 11:11:02;;;;;;;0.20;0.20;;;20.60;99.90;;;;;;5095089;28;20102;-64
2023/07/19 11:13:28;;;;;;;1.27;0.57;;;20.40;99.90;;;;;;5094844;28;20048;-63
2023/07/19 11:15:57;;;;;;;0.10;0.10;;;20.80;99.90;;;;;;5094727;28;20044;-64
2023/07/19 11:18:27;;;;;;;0.17;0.17;;;20.80;99.90;;;;;;5094621;28;20488;-64
2023/07/19 11:20:59;;;;;;;0.10;0.10;;;20.40;99.90;;;;;;5094744;28;20056;-65
2023/07/19 11:23:26;;;;;;;0.32;0.17;;;20.70;99.90;;;;;;5094704;28;20131;-66
2023/07/19 11:26:08;;;;;;;0.10;0.10;;;20.80;99.90;;;;;;5094522;28;20160;-64
2023/07/19 11:28:41;;;;;;;1.17;0.90;;;20.50;99.90;;;;;;5094420;28;20104;-62
2023/07/19 11:31:07;;;;;;;0.10;0.10;;;20.60;99.90;;;;;;5094569;28;20052;-65
2023/07/19 11:33:34;;;;;;;0.20;0.20;;;20.90;99.90;;;;;;5094471;28;20117;-63
2023/07/19 11:36:04;;;;;;;0.10;0.10;;;21.20;99.90;;;;;;5094331;28;20447;-64
2023/07/19 11:38:33;;;;;;;0.00;0.00;;;20.80;99.90;;;;;;5094502;28;20051;-64
2023/07/19 11:40:58;;;;;;;0.63;0.13;;;21.10;99.90;;;;;;5094104;28;20510;-64
2023/07/19 11:43:25;;;;;;;0.10;0.10;;;21.20;99.90;;;;;;5094123;28;20048;-63
2023/07/19 11:45:51;;;;;;;0.38;0.30;;;21.20;99.90;;;;;;5094323;28;20051;-64
2023/07/19 11:48:17;;;;;;;0.10;0.10;;;21.20;99.90;;;;;;5094421;28;20412;-64
2023/07/19 11:50:42;;;;;;;0.45;0.20;;;21.20;99.90;;;;;;5092797;28;20496;-64
2023/07/19 11:53:08;;;;;;;0.30;0.30;;;21.10;99.90;;;;;;5093921;28;20124;-63
2023/07/19 11:55:34;;;;;;;0.00;0.00;;;21.40;99.90;;;;;;5093987;28;20048;-62
2023/07/19 11:58:02;;;;;;;0.13;0.13;;;21.00;99.90;;;;;;5094011;28;20048;-63
2023/07/19 12:00:30;;;;;;;0.00;0.00;;;20.90;99.90;;;;;;5094060;28;20036;-63
2023/07/19 12:02:56;;;;;;;0.00;0.00;;;20.80;99.90;;;;;;5093955;28;20411;-64
2023/07/19 12:05:24;;;;;;;0.10;0.10;;;20.80;99.90;;;;;;5092488;28;20079;-64
2023/07/19 12:07:51;;;;;;;0.10;0.10;;;21.10;99.90;;;;;;5094159;28;20181;-64
2023/07/19 12:10:19;;;;;;;0.20;0.20;;;21.40;99.90;;;;;;5092812;28;20059;-65
2023/07/19 12:12:46;;;;;;;0.55;0.20;;;21.20;99.90;;;;;;5093768;28;20480;-63
2023/07/19 12:15:13;;;;;;;0.10;0.10;;;21.20;99.90;;;;;;5093733;28;20067;-65
2023/07/19 12:17:38;;;;;;;0.00;0.00;;;21.20;99.90;;;;;;5093686;28;20079;-64
2023/07/19 12:20:06;;;;;;;0.00;0.00;;;21.00;99.90;;;;;;5093647;28;20156;-63
2023/07/19 12:22:33;;;;;;;0.10;0.10;;;20.80;99.90;;;;;;5093517;28;20400;-64
2023/07/19 12:24:59;;;;;;;0.00;0.00;;;20.70;99.90;;;;;;5093274;28;20156;-64
2023/07/19 12:27:26;;;;;;;0.10;0.10;;;21.00;99.90;;;;;;5093716;28;20585;-61
2023/07/19 12:29:52;;;;;;;0.20;0.20;;;21.10;99.90;;;;;;5093527;28;20051;-64
2023/07/19 12:32:18;;;;;;;0.10;0.10;;;21.40;99.90;;;;;;5093501;28;20052;-64
2023/07/19 12:34:45;;;;;;;0.10;0.10;;;21.10;99.90;;;;;;5082017;28;20056;-64
2023/07/19 12:37:12;;;;;;;0.00;0.00;;;21.60;99.90;;;;;;5076410;28;20051;-64
2023/07/19 12:39:39;;;;;;;0.00;0.00;;;21.10;99.90;;;;;;5083782;28;20047;-65
2023/07/19 12:42:06;;;;;;;0.17;0.17;;;21.50;99.90;;;;;;5071611;28;20048;-67
2023/07/19 12:44:32;;;;;;;0.10;0.10;;;21.00;99.90;;;;;;5089208;28;20160;-66
2023/07/19 12:46:58;;;;;;;0.50;0.17;;;20.90;99.90;;;;;;5092840;28;20397;-66
2023/07/19 12:49:23;;;;;;;0.28;0.28;;;20.70;99.90;;;;;;5092288;28;20488;-66
2023/07/19 12:51:49;;;;;;;0.00;0.00;;;20.70;99.90;;;;;;5091964;28;20048;-66
2023/07/19 12:54:15;;;;;;;0.00;0.00;;;20.70;99.90;;;;;;5092745;28;20386;-66
2023/07/19 12:56:42;;;;;;;0.00;0.00;;;21.10;99.90;;;;;;5092377;28;20437;-68
2023/07/19 12:59:09;;;;;;;0.10;0.10;;;20.90;99.90;;;;;;5092745;28;20047;-66